sensor_id;sensor_type;location;lat;lon;timestamp;temperature;humidity
15578;DHT22;17667;45.598;5.214;2023-04-03T06:53:29;9.90;99.90
15578;DHT22;17667;45.598;5.214;2023-04-03T06:56:17;10.10;99.90
15578;DHT22;17667;45.598;5.214;2023-04-03T06:59:05;10.30;99.90
15578;DHT22;17667;45.598;5.214;2023-04-03T07:01:53;10.50;99.90
15578;DHT22;17667;45.598;5.214;2023-04-03T07:04:40;10.80;99.90
15578;DHT22;17667;45.598;5.214;2023-04-03T07:07:28;11.10;99.90
15578;DHT22;17667;45.598;5.214;2023-04-03T07:10:17;11.30;99.90
15578;DHT22;17667;45.598;5.214;2023-04-03T07:13:05;11.50;99.90
15578;DHT22;17667;45.598;5.214;2023-04-03T07:15:53;11.60;99.70
15578;DHT22;17667;45.598;5.214;2023-04-03T07:18:41;11.70;99.20
15578;DHT22;17667;45.598;5.214;2023-04-03T07:21:28;11.80;97.60
15578;DHT22;17667;45.598;5.214;2023-04-03T07:24:17;11.90;97.50
15578;DHT22;17667;45.598;5.214;2023-04-03T07:27:06;12.00;96.70
15578;DHT22;17667;45.598;5.214;2023-04-03T07:29:54;11.80;95.70
15578;DHT22;17667;45.598;5.214;2023-04-03T07:32:42;11.60;95.30
15578;DHT22;17667;45.598;5.214;2023-04-03T07:35:30;11.70;96.30
15578;DHT22;17667;45.598;5.214;2023-04-03T07:38:18;11.50;95.70
15578;DHT22;17667;45.598;5.214;2023-04-03T07:41:06;11.40;96.30
15578;DHT22;17667;45.598;5.214;2023-04-03T07:43:55;11.50;96.50
15578;DHT22;17667;45.598;5.214;2023-04-03T07:46:42;11.90;96.50
15578;DHT22;17667;45.598;5.214;2023-04-03T07:49:30;12.00;95.20
15578;DHT22;17667;45.598;5.214;2023-04-03T07:52:18;12.00;94.30
15578;DHT22;17667;45.598;5.214;2023-04-03T07:55:07;12.20;94.60
15578;DHT22;17667;45.598;5.214;2023-04-03T07:57:55;12.20;95.30
15578;DHT22;17667;45.598;5.214;2023-04-03T08:00:44;12.20;93.80
15578;DHT22;17667;45.598;5.214;2023-04-03T08:03:31;12.20;93.70
15578;DHT22;17667;45.598;5.214;2023-04-03T08:06:19;12.20;93.80
15578;DHT22;17667;45.598;5.214;2023-04-03T08:09:11;11.80;93.70
15578;DHT22;17667;45.598;5.214;2023-04-03T08:11:59;11.80;94.40
15578;DHT22;17667;45.598;5.214;2023-04-03T08:14:47;11.60;94.30
15578;DHT22;17667;45.598;5.214;2023-04-03T08:17:36;11.60;95.80
15578;DHT22;17667;45.598;5.214;2023-04-03T08:20:24;11.90;96.00
15578;DHT22;17667;45.598;5.214;2023-04-03T08:23:12;12.10;95.40
15578;DHT22;17667;45.598;5.214;2023-04-03T08:26:06;12.50;94.80
15578;DHT22;17667;45.598;5.214;2023-04-03T08:28:54;12.60;94.80
15578;DHT22;17667;45.598;5.214;2023-04-03T08:31:41;12.40;94.30
15578;DHT22;17667;45.598;5.214;2023-04-03T08:34:31;12.30;93.80
15578;DHT22;17667;45.598;5.214;2023-04-03T08:37:21;12.20;94.50
15578;DHT22;17667;45.598;5.214;2023-04-03T08:40:13;12.20;96.30
15578;DHT22;17667;45.598;5.214;2023-04-03T08:43:12;12.30;95.60
15578;DHT22;17667;45.598;5.214;2023-04-03T08:46:03;12.30;95.40
15578;DHT22;17667;45.598;5.214;2023-04-03T08:48:53;12.40;96.40
15578;DHT22;17667;45.598;5.214;2023-04-03T08:51:46;12.60;94.60
15578;DHT22;17667;45.598;5.214;2023-04-03T08:54:37;12.70;94.60
15578;DHT22;17667;45.598;5.214;2023-04-03T08:57:30;13.00;94.60
15578;DHT22;17667;45.598;5.214;2023-04-03T09:00:22;13.30;94.00
15578;DHT22;17667;45.598;5.214;2023-04-03T09:03:13;13.40;92.40
15578;DHT22;17667;45.598;5.214;2023-04-03T09:09:02;14.00;91.50
15578;DHT22;17667;45.598;5.214;2023-04-03T09:11:59;14.30;91.10
15578;DHT22;17667;45.598;5.214;2023-04-03T09:14:58;14.40;91.00
15578;DHT22;17667;45.598;5.214;2023-04-03T09:17:56;14.40;88.50
15578;DHT22;17667;45.598;5.214;2023-04-03T09:20:49;13.90;90.10
15578;DHT22;17667;45.598;5.214;2023-04-03T09:23:43;13.80;90.20
15578;DHT22;17667;45.598;5.214;2023-04-03T09:26:36;13.90;90.80
15578;DHT22;17667;45.598;5.214;2023-04-03T09:29:26;13.90;90.30
15578;DHT22;17667;45.598;5.214;2023-04-03T09:32:27;14.20;90.10
15578;DHT22;17667;45.598;5.214;2023-04-03T09:35:24;14.20;88.10
15578;DHT22;17667;45.598;5.214;2023-04-03T09:38:18;14.10;88.20
15578;DHT22;17667;45.598;5.214;2023-04-03T09:41:13;13.60;89.50
15578;DHT22;17667;45.598;5.214;2023-04-03T09:44:20;13.10;90.50
15578;DHT22;17667;45.598;5.214;2023-04-03T09:47:18;12.50;91.90
15578;DHT22;17667;45.598;5.214;2023-04-03T09:50:19;12.00;91.90
15578;DHT22;17667;45.598;5.214;2023-04-03T09:53:27;11.90;94.20
15578;DHT22;17667;45.598;5.214;2023-04-03T09:56:22;11.90;94.60
15578;DHT22;17667;45.598;5.214;2023-04-03T09:59:15;12.10;94.50
15578;DHT22;17667;45.598;5.214;2023-04-03T10:02:21;12.10;93.90
15578;DHT22;17667;45.598;5.214;2023-04-03T10:05:29;11.80;94.50
15578;DHT22;17667;45.598;5.214;2023-04-03T10:08:27;12.20;94.90
15578;DHT22;17667;45.598;5.214;2023-04-03T10:11:17;12.10;94.30
15578;DHT22;17667;45.598;5.214;2023-04-03T10:14:15;12.00;94.90
15578;DHT22;17667;45.598;5.214;2023-04-03T10:17:13;11.80;94.70
15578;DHT22;17667;45.598;5.214;2023-04-03T10:20:10;11.90;94.10
15578;DHT22;17667;45.598;5.214;2023-04-03T10:23:15;11.80;94.50
15578;DHT22;17667;45.598;5.214;2023-04-03T10:26:15;11.90;94.70
15578;DHT22;17667;45.598;5.214;2023-04-03T10:29:11;12.10;94.90
15578;DHT22;17667;45.598;5.214;2023-04-03T10:32:11;12.10;93.70
15578;DHT22;17667;45.598;5.214;2023-04-03T10:35:07;12.20;93.60
15578;DHT22;17667;45.598;5.214;2023-04-03T10:38:01;12.40;92.90
15578;DHT22;17667;45.598;5.214;2023-04-03T10:40:57;12.40;93.30
15578;DHT22;17667;45.598;5.214;2023-04-03T10:43:53;12.50;92.80
15578;DHT22;17667;45.598;5.214;2023-04-03T10:46:46;13.00;91.80
15578;DHT22;17667;45.598;5.214;2023-04-03T10:49:46;13.10;91.80
15578;DHT22;17667;45.598;5.214;2023-04-03T10:52:47;13.20;92.10
15578;DHT22;17667;45.598;5.214;2023-04-03T10:55:43;13.50;91.60
15578;DHT22;17667;45.598;5.214;2023-04-03T10:58:34;13.40;90.70
15578;DHT22;17667;45.598;5.214;2023-04-03T11:01:28;13.50;91.70
15578;DHT22;17667;45.598;5.214;2023-04-03T11:04:19;13.70;90.80
15578;DHT22;17667;45.598;5.214;2023-04-03T11:07:14;13.60;90.10
15578;DHT22;17667;45.598;5.214;2023-04-03T11:10:09;14.30;90.50
15578;DHT22;17667;45.598;5.214;2023-04-03T11:13:08;15.90;84.60
15578;DHT22;17667;45.598;5.214;2023-04-03T11:15:58;15.50;80.50
15578;DHT22;17667;45.598;5.214;2023-04-03T11:18:50;15.20;83.80
15578;DHT22;17667;45.598;5.214;2023-04-03T11:21:42;14.60;82.50
15578;DHT22;17667;45.598;5.214;2023-04-03T11:24:33;14.40;84.20
15578;DHT22;17667;45.598;5.214;2023-04-03T11:27:23;13.70;84.10
15578;DHT22;17667;45.598;5.214;2023-04-03T11:30:17;13.10;88.00
15578;DHT22;17667;45.598;5.214;2023-04-03T11:33:19;13.00;88.90
15578;DHT22;17667;45.598;5.214;2023-04-03T11:36:12;13.10;89.90
15578;DHT22;17667;45.598;5.214;2023-04-03T11:39:19;13.70;87.40
15578;DHT22;17667;45.598;5.214;2023-04-03T11:42:23;14.40;83.10
15578;DHT22;17667;45.598;5.214;2023-04-03T11:45:22;15.10;80.60
15578;DHT22;17667;45.598;5.214;2023-04-03T11:51:42;15.70;77.00
15578;DHT22;17667;45.598;5.214;2023-04-03T11:54:47;15.30;77.80
15578;DHT22;17667;45.598;5.214;2023-04-03T11:58:02;15.90;82.20
15578;DHT22;17667;45.598;5.214;2023-04-03T12:01:00;16.40;72.90
15578;DHT22;17667;45.598;5.214;2023-04-03T12:04:06;17.90;69.50
15578;DHT22;17667;45.598;5.214;2023-04-03T12:07:14;17.00;71.10
15578;DHT22;17667;45.598;5.214;2023-04-03T12:10:17;15.70;72.70
15578;DHT22;17667;45.598;5.214;2023-04-03T12:13:16;14.90;75.40
15578;DHT22;17667;45.598;5.214;2023-04-03T12:16:05;14.40;78.40
15578;DHT22;17667;45.598;5.214;2023-04-03T12:18:57;14.40;78.30
15578;DHT22;17667;45.598;5.214;2023-04-03T12:22:05;14.30;78.20
15578;DHT22;17667;45.598;5.214;2023-04-03T12:24:53;13.70;79.00
15578;DHT22;17667;45.598;5.214;2023-04-03T12:27:42;13.50;79.50
15578;DHT22;17667;45.598;5.214;2023-04-03T12:30:31;13.50;80.20
15578;DHT22;17667;45.598;5.214;2023-04-03T12:33:29;13.30;80.50
15578;DHT22;17667;45.598;5.214;2023-04-03T12:36:27;12.90;81.70
15578;DHT22;17667;45.598;5.214;2023-04-03T12:39:45;13.00;81.40
15578;DHT22;17667;45.598;5.214;2023-04-03T12:43:02;13.40;81.20
15578;DHT22;17667;45.598;5.214;2023-04-03T12:46:02;13.70;78.90
15578;DHT22;17667;45.598;5.214;2023-04-03T12:48:51;13.90;79.10
15578;DHT22;17667;45.598;5.214;2023-04-03T12:51:43;16.60;75.90
15578;DHT22;17667;45.598;5.214;2023-04-03T12:54:34;19.10;62.30
15578;DHT22;17667;45.598;5.214;2023-04-03T12:57:24;18.70;62.10
15578;DHT22;17667;45.598;5.214;2023-04-03T13:00:22;20.20;62.10
15578;DHT22;17667;45.598;5.214;2023-04-03T13:03:23;21.80;52.50
15578;DHT22;17667;45.598;5.214;2023-04-03T13:06:17;19.90;56.10
15578;DHT22;17667;45.598;5.214;2023-04-03T13:09:14;17.10;63.10
15578;DHT22;17667;45.598;5.214;2023-04-03T13:12:12;15.80;68.60
15578;DHT22;17667;45.598;5.214;2023-04-03T13:15:02;15.00;72.50
15578;DHT22;17667;45.598;5.214;2023-04-03T13:17:51;14.50;73.90
15578;DHT22;17667;45.598;5.214;2023-04-03T13:20:41;13.90;77.60
15578;DHT22;17667;45.598;5.214;2023-04-03T13:23:29;13.90;77.90
15578;DHT22;17667;45.598;5.214;2023-04-03T13:26:18;14.10;78.50
15578;DHT22;17667;45.598;5.214;2023-04-03T13:29:20;13.90;78.00
15578;DHT22;17667;45.598;5.214;2023-04-03T13:32:18;13.40;80.60
15578;DHT22;17667;45.598;5.214;2023-04-03T13:35:28;13.10;81.00
15578;DHT22;17667;45.598;5.214;2023-04-03T13:38:25;12.90;82.40
15578;DHT22;17667;45.598;5.214;2023-04-03T13:41:25;13.20;80.90
15578;DHT22;17667;45.598;5.214;2023-04-03T13:44:26;13.50;80.50
15578;DHT22;17667;45.598;5.214;2023-04-03T13:47:19;14.30;77.20
15578;DHT22;17667;45.598;5.214;2023-04-03T13:50:20;14.20;76.10
15578;DHT22;17667;45.598;5.214;2023-04-03T13:53:11;17.40;68.90
15578;DHT22;17667;45.598;5.214;2023-04-03T13:56:07;16.40;69.00
15578;DHT22;17667;45.598;5.214;2023-04-03T13:59:03;14.90;72.80
15578;DHT22;17667;45.598;5.214;2023-04-03T14:01:54;14.60;75.20
15578;DHT22;17667;45.598;5.214;2023-04-03T14:04:49;14.20;77.40
15578;DHT22;17667;45.598;5.214;2023-04-03T14:07:39;14.10;77.80
15578;DHT22;17667;45.598;5.214;2023-04-03T14:10:27;13.80;78.00
15578;DHT22;17667;45.598;5.214;2023-04-03T14:13:18;13.50;79.50
15578;DHT22;17667;45.598;5.214;2023-04-03T14:16:06;13.20;80.60
15578;DHT22;17667;45.598;5.214;2023-04-03T14:18:58;12.90;82.70
15578;DHT22;17667;45.598;5.214;2023-04-03T14:21:46;12.60;83.90
15578;DHT22;17667;45.598;5.214;2023-04-03T14:24:34;12.50;84.20
15578;DHT22;17667;45.598;5.214;2023-04-03T14:27:24;12.40;84.50
15578;DHT22;17667;45.598;5.214;2023-04-03T14:30:18;12.50;84.40
15578;DHT22;17667;45.598;5.214;2023-04-03T14:33:09;12.80;82.60
15578;DHT22;17667;45.598;5.214;2023-04-03T14:35:57;12.60;83.60
15578;DHT22;17667;45.598;5.214;2023-04-03T14:38:46;12.40;84.80
15578;DHT22;17667;45.598;5.214;2023-04-03T14:41:35;12.70;84.60
15578;DHT22;17667;45.598;5.214;2023-04-03T14:44:22;15.60;76.90
15578;DHT22;17667;45.598;5.214;2023-04-03T14:47:14;16.00;71.40
15578;DHT22;17667;45.598;5.214;2023-04-03T14:50:13;16.10;68.00
15578;DHT22;17667;45.598;5.214;2023-04-03T14:53:01;14.50;74.60
15578;DHT22;17667;45.598;5.214;2023-04-03T14:55:49;16.90;69.80
15578;DHT22;17667;45.598;5.214;2023-04-03T14:58:37;16.50;64.10
15578;DHT22;17667;45.598;5.214;2023-04-03T15:01:25;14.50;72.20
15578;DHT22;17667;45.598;5.214;2023-04-03T15:04:16;13.70;76.00
15578;DHT22;17667;45.598;5.214;2023-04-03T15:07:04;17.40;67.90
15578;DHT22;17667;45.598;5.214;2023-04-03T15:09:52;17.90;63.00
15578;DHT22;17667;45.598;5.214;2023-04-03T15:12:42;15.30;69.10
15578;DHT22;17667;45.598;5.214;2023-04-03T15:15:30;13.90;74.70
15578;DHT22;17667;45.598;5.214;2023-04-03T15:18:19;13.60;78.20
15578;DHT22;17667;45.598;5.214;2023-04-03T15:21:09;13.60;78.50
15578;DHT22;17667;45.598;5.214;2023-04-03T15:23:57;14.30;74.80
15578;DHT22;17667;45.598;5.214;2023-04-03T15:26:45;13.50;77.50
15578;DHT22;17667;45.598;5.214;2023-04-03T15:29:33;13.30;79.60
15578;DHT22;17667;45.598;5.214;2023-04-03T15:32:21;13.00;80.40
15578;DHT22;17667;45.598;5.214;2023-04-03T15:35:08;13.30;80.20
15578;DHT22;17667;45.598;5.214;2023-04-03T15:37:58;15.90;73.30
15578;DHT22;17667;45.598;5.214;2023-04-03T15:40:46;16.00;68.70
15578;DHT22;17667;45.598;5.214;2023-04-03T15:43:34;13.90;74.80
15578;DHT22;17667;45.598;5.214;2023-04-03T15:46:22;13.00;78.50
15578;DHT22;17667;45.598;5.214;2023-04-03T15:49:11;13.90;77.70
15578;DHT22;17667;45.598;5.214;2023-04-03T15:51:59;15.10;72.00
15578;DHT22;17667;45.598;5.214;2023-04-03T15:54:48;13.90;75.30
15578;DHT22;17667;45.598;5.214;2023-04-03T15:57:35;13.20;78.20
15578;DHT22;17667;45.598;5.214;2023-04-03T16:00:28;13.00;79.10
15578;DHT22;17667;45.598;5.214;2023-04-03T16:03:18;12.60;80.00
15578;DHT22;17667;45.598;5.214;2023-04-03T16:06:07;14.20;78.50
15578;DHT22;17667;45.598;5.214;2023-04-03T16:08:54;17.20;65.70
15578;DHT22;17667;45.598;5.214;2023-04-03T16:11:45;16.50;65.70
15578;DHT22;17667;45.598;5.214;2023-04-03T16:14:33;15.70;65.30
15578;DHT22;17667;45.598;5.214;2023-04-03T16:17:20;15.10;69.70
15578;DHT22;17667;45.598;5.214;2023-04-03T16:20:10;14.40;74.10
15578;DHT22;17667;45.598;5.214;2023-04-03T16:23:00;13.50;76.00
15578;DHT22;17667;45.598;5.214;2023-04-03T16:25:48;13.10;78.30
15578;DHT22;17667;45.598;5.214;2023-04-03T16:28:37;12.90;78.80
15578;DHT22;17667;45.598;5.214;2023-04-03T16:31:25;12.70;78.90
15578;DHT22;17667;45.598;5.214;2023-04-03T16:34:14;12.90;74.70
15578;DHT22;17667;45.598;5.214;2023-04-03T16:37:02;13.00;76.60
15578;DHT22;17667;45.598;5.214;2023-04-03T16:39:50;13.10;74.80
15578;DHT22;17667;45.598;5.214;2023-04-03T16:42:37;13.20;68.00
15578;DHT22;17667;45.598;5.214;2023-04-03T16:45:26;13.30;67.30
15578;DHT22;17667;45.598;5.214;2023-04-03T16:48:14;13.40;66.50
15578;DHT22;17667;45.598;5.214;2023-04-03T16:51:01;13.50;65.70
15578;DHT22;17667;45.598;5.214;2023-04-03T16:53:49;13.50;65.20
15578;DHT22;17667;45.598;5.214;2023-04-03T16:56:37;13.50;66.70
15578;DHT22;17667;45.598;5.214;2023-04-03T16:59:25;13.50;67.70
15578;DHT22;17667;45.598;5.214;2023-04-03T17:02:14;13.10;72.20
15578;DHT22;17667;45.598;5.214;2023-04-03T17:05:02;12.90;73.30
15578;DHT22;17667;45.598;5.214;2023-04-03T17:07:50;12.80;70.40
15578;DHT22;17667;45.598;5.214;2023-04-03T17:10:37;12.70;67.70
15578;DHT22;17667;45.598;5.214;2023-04-03T17:13:27;12.60;68.40
15578;DHT22;17667;45.598;5.214;2023-04-03T17:16:18;12.50;66.80
15578;DHT22;17667;45.598;5.214;2023-04-03T17:19:07;12.50;68.50
15578;DHT22;17667;45.598;5.214;2023-04-03T17:21:54;12.30;73.20
15578;DHT22;17667;45.598;5.214;2023-04-03T17:24:42;12.30;67.60
15578;DHT22;17667;45.598;5.214;2023-04-03T17:27:30;12.30;66.50
15578;DHT22;17667;45.598;5.214;2023-04-03T17:30:18;12.20;66.20
15578;DHT22;17667;45.598;5.214;2023-04-03T17:33:05;12.10;65.80
15578;DHT22;17667;45.598;5.214;2023-04-03T17:35:55;12.10;65.60
15578;DHT22;17667;45.598;5.214;2023-04-03T17:38:44;12.00;66.00
15578;DHT22;17667;45.598;5.214;2023-04-03T17:41:33;12.00;65.10
15578;DHT22;17667;45.598;5.214;2023-04-03T17:44:21;11.90;64.10
15578;DHT22;17667;45.598;5.214;2023-04-03T17:47:08;11.90;63.70
15578;DHT22;17667;45.598;5.214;2023-04-03T17:49:56;11.90;62.60
15578;DHT22;17667;45.598;5.214;2023-04-03T17:55:36;11.80;60.10
15578;DHT22;17667;45.598;5.214;2023-04-03T17:58:23;11.80;61.50
15578;DHT22;17667;45.598;5.214;2023-04-03T18:01:13;11.80;62.00
15578;DHT22;17667;45.598;5.214;2023-04-03T18:04:03;11.80;62.30
15578;DHT22;17667;45.598;5.214;2023-04-03T18:06:52;11.60;61.50
15578;DHT22;17667;45.598;5.214;2023-04-03T18:09:44;11.60;62.40
15578;DHT22;17667;45.598;5.214;2023-04-03T18:12:32;11.60;62.50
15578;DHT22;17667;45.598;5.214;2023-04-03T18:15:20;11.50;61.20
15578;DHT22;17667;45.598;5.214;2023-04-03T18:18:09;11.40;62.20
15578;DHT22;17667;45.598;5.214;2023-04-03T18:20:57;11.30;62.60
15578;DHT22;17667;45.598;5.214;2023-04-03T18:23:47;11.30;62.60
15578;DHT22;17667;45.598;5.214;2023-04-03T18:26:39;11.20;63.00
15578;DHT22;17667;45.598;5.214;2023-04-03T18:29:29;11.20;63.30
15578;DHT22;17667;45.598;5.214;2023-04-03T18:32:22;11.10;63.40
15578;DHT22;17667;45.598;5.214;2023-04-03T18:35:09;11.00;63.40
15578;DHT22;17667;45.598;5.214;2023-04-03T18:37:57;11.00;64.20
15578;DHT22;17667;45.598;5.214;2023-04-03T18:40:45;10.90;64.00
15578;DHT22;17667;45.598;5.214;2023-04-03T18:43:35;10.90;64.50
15578;DHT22;17667;45.598;5.214;2023-04-03T18:46:22;10.80;64.70
15578;DHT22;17667;45.598;5.214;2023-04-03T18:49:11;10.80;64.10
15578;DHT22;17667;45.598;5.214;2023-04-03T18:52:00;10.70;63.80
15578;DHT22;17667;45.598;5.214;2023-04-03T18:54:48;10.60;64.50
15578;DHT22;17667;45.598;5.214;2023-04-03T18:57:35;10.50;64.60
15578;DHT22;17667;45.598;5.214;2023-04-03T19:00:24;10.40;64.10
15578;DHT22;17667;45.598;5.214;2023-04-03T19:03:12;10.30;64.10
15578;DHT22;17667;45.598;5.214;2023-04-03T19:06:01;10.10;64.50
15578;DHT22;17667;45.598;5.214;2023-04-03T19:08:49;9.90;65.00
15578;DHT22;17667;45.598;5.214;2023-04-03T19:11:37;9.80;65.60
15578;DHT22;17667;45.598;5.214;2023-04-03T19:14:24;9.80;64.90
15578;DHT22;17667;45.598;5.214;2023-04-03T19:17:13;9.60;64.90
15578;DHT22;17667;45.598;5.214;2023-04-03T19:20:01;9.50;65.50
15578;DHT22;17667;45.598;5.214;2023-04-03T19:22:50;9.40;66.10
15578;DHT22;17667;45.598;5.214;2023-04-03T19:25:38;9.40;66.20
15578;DHT22;17667;45.598;5.214;2023-04-03T19:28:26;9.30;65.70
15578;DHT22;17667;45.598;5.214;2023-04-03T19:31:16;9.20;66.80
15578;DHT22;17667;45.598;5.214;2023-04-03T19:34:06;9.00;67.30
15578;DHT22;17667;45.598;5.214;2023-04-03T19:36:53;8.90;68.20
15578;DHT22;17667;45.598;5.214;2023-04-03T19:39:41;8.80;68.50
15578;DHT22;17667;45.598;5.214;2023-04-03T19:42:29;8.70;69.80
15578;DHT22;17667;45.598;5.214;2023-04-03T19:45:17;8.80;70.40
15578;DHT22;17667;45.598;5.214;2023-04-03T19:48:06;8.80;70.10
15578;DHT22;17667;45.598;5.214;2023-04-03T19:50:54;8.90;68.80
15578;DHT22;17667;45.598;5.214;2023-04-03T19:53:42;9.00;68.20
15578;DHT22;17667;45.598;5.214;2023-04-03T19:56:32;8.90;68.30
15578;DHT22;17667;45.598;5.214;2023-04-03T19:59:19;8.90;69.50
15578;DHT22;17667;45.598;5.214;2023-04-03T20:02:07;8.90;69.90
15578;DHT22;17667;45.598;5.214;2023-04-03T20:04:55;8.70;70.20
15578;DHT22;17667;45.598;5.214;2023-04-03T20:07:44;8.70;70.50
15578;DHT22;17667;45.598;5.214;2023-04-03T20:10:32;8.70;70.70
15578;DHT22;17667;45.598;5.214;2023-04-03T20:13:25;8.60;70.80
15578;DHT22;17667;45.598;5.214;2023-04-03T20:16:12;8.60;71.10
15578;DHT22;17667;45.598;5.214;2023-04-03T20:19:00;8.50;70.80
15578;DHT22;17667;45.598;5.214;2023-04-03T20:21:48;8.50;71.10
15578;DHT22;17667;45.598;5.214;2023-04-03T20:24:37;8.50;71.50
15578;DHT22;17667;45.598;5.214;2023-04-03T20:27:25;8.50;71.40
15578;DHT22;17667;45.598;5.214;2023-04-03T20:30:14;8.50;71.30
15578;DHT22;17667;45.598;5.214;2023-04-03T20:33:02;8.50;71.90
15578;DHT22;17667;45.598;5.214;2023-04-03T20:35:50;8.50;71.70
15578;DHT22;17667;45.598;5.214;2023-04-03T20:38:38;8.50;71.10
15578;DHT22;17667;45.598;5.214;2023-04-03T20:41:28;8.40;71.70
15578;DHT22;17667;45.598;5.214;2023-04-03T20:44:17;8.20;71.40
15578;DHT22;17667;45.598;5.214;2023-04-03T20:47:05;8.20;72.40
15578;DHT22;17667;45.598;5.214;2023-04-03T20:49:53;8.10;72.40
15578;DHT22;17667;45.598;5.214;2023-04-03T20:52:42;8.10;72.90
15578;DHT22;17667;45.598;5.214;2023-04-03T20:55:29;8.10;72.20
15578;DHT22;17667;45.598;5.214;2023-04-03T20:58:18;8.00;72.20
15578;DHT22;17667;45.598;5.214;2023-04-03T21:01:15;8.00;72.20
15578;DHT22;17667;45.598;5.214;2023-04-03T21:04:07;7.90;72.80
15578;DHT22;17667;45.598;5.214;2023-04-03T21:20:05;7.90;71.60
15578;DHT22;17667;45.598;5.214;2023-04-03T21:22:53;7.80;71.70
15578;DHT22;17667;45.598;5.214;2023-04-03T21:25:41;7.80;72.00
15578;DHT22;17667;45.598;5.214;2023-04-03T21:28:29;7.70;72.30
15578;DHT22;17667;45.598;5.214;2023-04-03T21:31:17;7.50;72.80
15578;DHT22;17667;45.598;5.214;2023-04-03T21:34:04;7.50;73.10
15578;DHT22;17667;45.598;5.214;2023-04-03T21:36:53;7.50;73.90
15578;DHT22;17667;45.598;5.214;2023-04-03T21:39:42;7.40;73.90
15578;DHT22;17667;45.598;5.214;2023-04-03T21:42:30;7.30;73.90
15578;DHT22;17667;45.598;5.214;2023-04-03T21:45:18;7.30;74.50
15578;DHT22;17667;45.598;5.214;2023-04-03T21:48:06;7.20;74.10
15578;DHT22;17667;45.598;5.214;2023-04-03T21:51:01;7.20;74.10
15578;DHT22;17667;45.598;5.214;2023-04-03T21:53:52;7.20;74.60
15578;DHT22;17667;45.598;5.214;2023-04-03T21:56:39;7.20;74.10
15578;DHT22;17667;45.598;5.214;2023-04-03T21:59:27;7.10;74.30
